Malaga — ER2657 — position and weather

sailwx.info

Track history (hours):
 
Tides and Currents Weather Stations Pressure Air Temp Water Temp Dewpoint Dewpoint Depression Visibility Wind Speed Wind Dir Waves Ship Positions

Malaga

Last reported at 2017-Oct-18 18:30 UTC. Time now 2017-Oct-18 18:45 UTC.
Position N 43°37' E 028°49'.

Length 82 m; draft 3.9 m.

Type: Cargo ship. MMSI: 214182657.

Date/timePositionNaut miles runAvg speedWind from/ knotsBaromVisibWave heightAir tempDewpointWater temp
2017-Oct-18 18:30N 43°37' E 028°49'5 9.4
2017-Oct-18 18:00N 43°32' E 028°49'5 9.5
2017-Oct-18 17:31N 43°27' E 028°49'5 9.5
2017-Oct-18 17:00N 43°23' E 028°49'5 9.3
2017-Oct-18 16:30N 43°18' E 028°49'5 9.1
2017-Oct-18 16:00N 43°13' E 028°49'5 9.1
2017-Oct-18 15:31N 43°09' E 028°49'5 9.1
2017-Oct-18 15:01N 43°04' E 028°49'9 9.1
2017-Oct-18 14:00N 42°55' E 028°49'5 9.3
2017-Oct-18 13:30N 42°50' E 028°49'5 9.3
2017-Oct-18 13:00N 42°46' E 028°49'5 9.3
2017-Oct-18 12:30N 42°41' E 028°49'5 9.2
2017-Oct-18 12:01N 42°37' E 028°49'5 9.2
2017-Oct-18 11:31N 42°32' E 028°49'5 9.0
2017-Oct-18 11:00N 42°27' E 028°49'4 8.8
2017-Oct-18 10:30N 42°23' E 028°50'4 9.0
2017-Oct-18 10:01N 42°19' E 028°51'5 9.1
2017-Oct-18 09:30N 42°14' E 028°52'4 9.0
2017-Oct-18 09:01N 42°10' E 028°53'4 7.9
2017-Oct-18 08:31N 42°06' E 028°53'70 7.0
2017-Oct-17 22:36N 40°56' E 028°56'3 0.2
2017-Oct-17 05:54N 40°54' E 028°55'3 8.7
2017-Oct-17 05:30N 40°52' E 028°51'  
Track history (hours):
 
Tides and Currents Weather Stations Pressure Air Temp Water Temp Dewpoint Dewpoint Depression Visibility Wind Speed Wind Dir Waves Ship Positions

Malaga

Last reported at 2017-Oct-18 18:30 UTC. Time now 2017-Oct-18 18:45 UTC.
Position N 43°37' E 028°49'.

Length 82 m; draft 3.9 m.

Type: Cargo ship. MMSI: 214182657.

Date/timePositionNaut miles runAvg speedWind from/ knotsBaromVisibWave heightAir tempDewpointWater temp
2017-Oct-18 18:30N 43°37' E 028°49'5 9.4
2017-Oct-18 18:00N 43°32' E 028°49'5 9.5
2017-Oct-18 17:31N 43°27' E 028°49'5 9.5
2017-Oct-18 17:00N 43°23' E 028°49'5 9.3
2017-Oct-18 16:30N 43°18' E 028°49'5 9.1
2017-Oct-18 16:00N 43°13' E 028°49'5 9.1
2017-Oct-18 15:31N 43°09' E 028°49'5 9.1
2017-Oct-18 15:01N 43°04' E 028°49'9 9.1
2017-Oct-18 14:00N 42°55' E 028°49'5 9.3
2017-Oct-18 13:30N 42°50' E 028°49'5 9.3
2017-Oct-18 13:00N 42°46' E 028°49'5 9.3
2017-Oct-18 12:30N 42°41' E 028°49'5 9.2
2017-Oct-18 12:01N 42°37' E 028°49'5 9.2
2017-Oct-18 11:31N 42°32' E 028°49'5 9.0
2017-Oct-18 11:00N 42°27' E 028°49'4 8.8
2017-Oct-18 10:30N 42°23' E 028°50'4 9.0
2017-Oct-18 10:01N 42°19' E 028°51'5 9.1
2017-Oct-18 09:30N 42°14' E 028°52'4 9.0
2017-Oct-18 09:01N 42°10' E 028°53'4 7.9
2017-Oct-18 08:31N 42°06' E 028°53'70 7.0
2017-Oct-17 22:36N 40°56' E 028°56'3 0.2
2017-Oct-17 05:54N 40°54' E 028°55'3 8.7
2017-Oct-17 05:30N 40°52' E 028°51'  

Dump ship's entire track history